Time;durP1;ratioP1;P1;durP2;ratioP2;P2;SDS_P1;SDS_P2;PMS_P1;PMS_P2;Temp;Humidity;BMP_temperature;BMP_pressure;BME280_temperature;BME280_humidity;BME280_pressure;Samples;Min_cycle;Max_cycle;Signal;HPM_P1;HPM_P2
2021/09/09 00:01:18;;;;;;;;;;;21.70;63.80;;;;;;5091019;28;19912;-61
2021/09/09 00:03:44;;;;;;;;;;;21.70;63.80;;;;;;5077917;28;19919;-56
2021/09/09 00:06:09;;;;;;;;;;;21.60;63.80;;;;;;5090482;28;19916;-59
2021/09/09 00:08:35;;;;;;;;;;;21.60;63.80;;;;;;5096093;28;20563;-59
2021/09/09 00:11:00;;;;;;;;;;;21.70;62.70;;;;;;5093192;28;19947;-59
2021/09/09 00:13:26;;;;;;;;;;;21.70;62.70;;;;;;5097658;27;19973;-57
2021/09/09 00:15:51;;;;;;;;;;;21.60;63.20;;;;;;5094308;28;19928;-59
2021/09/09 00:18:17;;;;;;;;;;;21.70;62.90;;;;;;5082331;28;20593;-56
2021/09/09 00:20:42;;;;;;;;;;;21.60;63.80;;;;;;5089302;28;19918;-55
2021/09/09 00:23:08;;;;;;;;;;;21.60;63.80;;;;;;5084555;28;19919;-56
2021/09/09 00:25:33;;;;;;;;;;;21.60;62.20;;;;;;5093357;27;19947;-55
2021/09/09 00:27:58;;;;;;;;;;;21.60;63.10;;;;;;5078568;28;19916;-57
2021/09/09 00:30:24;;;;;;;;;;;21.60;63.10;;;;;;5085162;28;19920;-59
2021/09/09 00:32:49;;;;;;;;;;;21.60;63.30;;;;;;5094727;28;20253;-60
2021/09/09 00:35:15;;;;;;;;;;;21.60;63.60;;;;;;5094637;28;19969;-54
2021/09/09 00:37:40;;;;;;;;;;;21.60;63.60;;;;;;5101258;28;19918;-60
2021/09/09 00:40:06;;;;;;;;;;;21.60;63.60;;;;;;5105311;28;20368;-61
2021/09/09 00:42:32;;;;;;;;;;;21.60;63.30;;;;;;5100453;28;19927;-60
2021/09/09 00:44:57;;;;;;;;;;;21.60;63.40;;;;;;5083672;28;19916;-58
2021/09/09 00:47:22;;;;;;;;;;;21.60;64.20;;;;;;5096801;27;19916;-60
2021/09/09 00:49:48;;;;;;;;;;;21.60;63.70;;;;;;5089056;28;19923;-62
2021/09/09 00:52:14;;;;;;;;;;;21.60;63.40;;;;;;5086173;28;19989;-57
2021/09/09 00:54:43;;;;;;;;;;;21.60;63.10;;;;;;5088216;28;19919;-58
2021/09/09 00:57:09;;;;;;;;;;;21.60;63.20;;;;;;5103361;28;19919;-55
2021/09/09 00:59:34;;;;;;;;;;;21.60;63.40;;;;;;5099448;27;19919;-60
2021/09/09 01:02:00;;;;;;;;;;;21.60;62.80;;;;;;5092574;28;19916;-59
2021/09/09 01:04:25;;;;;;;;;;;21.60;61.80;;;;;;5090245;28;20330;-60
2021/09/09 01:06:51;;;;;;;;;;;21.60;62.10;;;;;;5098707;28;19923;-59
2021/09/09 01:09:16;;;;;;;;;;;21.60;62.80;;;;;;5091618;28;20265;-59
2021/09/09 01:11:41;;;;;;;;;;;21.60;62.60;;;;;;5087530;28;19912;-57
2021/09/09 01:14:16;;;;;;;;;;;21.50;62.10;;;;;;5092228;28;19924;-60
2021/09/09 01:16:42;;;;;;;;;;;21.60;62.70;;;;;;5096749;28;19947;-58
2021/09/09 01:19:08;;;;;;;;;;;21.60;62.80;;;;;;5088823;28;20385;-55
2021/09/09 01:21:33;;;;;;;;;;;21.60;62.40;;;;;;5097311;28;20146;-60
2021/09/09 01:23:58;;;;;;;;;;;21.50;62.20;;;;;;5087473;27;19951;-57
2021/09/09 01:26:24;;;;;;;;;;;21.50;62.90;;;;;;5104490;28;20096;-59
2021/09/09 01:28:50;;;;;;;;;;;21.50;63.20;;;;;;5079604;28;19916;-57
2021/09/09 01:31:16;;;;;;;;;;;21.50;62.30;;;;;;5095104;27;19922;-59
2021/09/09 01:33:42;;;;;;;;;;;21.50;62.10;;;;;;5099713;28;19916;-57
2021/09/09 01:36:07;;;;;;;;;;;21.50;62.40;;;;;;5099983;27;20006;-58
2021/09/09 01:38:32;;;;;;;;;;;21.50;62.10;;;;;;5090653;28;20442;-59
2021/09/09 01:40:58;;;;;;;;;;;21.50;62.60;;;;;;5097461;27;19922;-57
2021/09/09 01:43:23;;;;;;;;;;;21.50;63.00;;;;;;5100078;28;19920;-59
2021/09/09 01:45:49;;;;;;;;;;;21.50;61.60;;;;;;5097310;27;19912;-61
2021/09/09 01:48:14;;;;;;;;;;;21.50;62.10;;;;;;5090229;27;20422;-56
2021/09/09 01:50:40;;;;;;;;;;;21.50;62.10;;;;;;5093606;28;19919;-63
2021/09/09 01:53:05;;;;;;;;;;;21.40;62.00;;;;;;5092923;28;19916;-62
2021/09/09 01:55:30;;;;;;;;;;;21.40;62.40;;;;;;5088183;27;19995;-61
2021/09/09 01:57:56;;;;;;;;;;;21.50;62.50;;;;;;5088441;28;20352;-59
2021/09/09 02:00:21;;;;;;;;;;;21.50;62.20;;;;;;5090447;27;19993;-60
2021/09/09 02:02:47;;;;;;;;;;;21.50;62.00;;;;;;5087509;27;19922;-55
2021/09/09 02:05:12;;;;;;;;;;;21.50;62.40;;;;;;5090521;28;19919;-57
2021/09/09 02:07:38;;;;;;;;;;;21.50;62.60;;;;;;5084201;28;20314;-61
2021/09/09 02:10:04;;;;;;;;;;;21.50;62.30;;;;;;5089261;28;20401;-60
2021/09/09 02:12:29;;;;;;;;;;;21.50;62.60;;;;;;5092032;28;19924;-55
2021/09/09 02:14:55;;;;;;;;;;;21.50;62.30;;;;;;5083904;28;19926;-57
2021/09/09 02:17:20;;;;;;;;;;;21.50;62.20;;;;;;5097209;28;19916;-60
2021/09/09 02:19:46;;;;;;;;;;;21.50;62.30;;;;;;5088878;28;20713;-57
2021/09/09 02:22:11;;;;;;;;;;;21.50;62.30;;;;;;5086007;28;20352;-57
2021/09/09 02:24:37;;;;;;;;;;;21.50;62.70;;;;;;5089996;28;19912;-60
2021/09/09 02:27:02;;;;;;;;;;;21.50;62.90;;;;;;5103974;28;20412;-60
2021/09/09 02:29:28;;;;;;;;;;;21.50;63.00;;;;;;5084606;28;20775;-58
2021/09/09 02:31:53;;;;;;;;;;;21.50;63.00;;;;;;5095798;28;19915;-55
2021/09/09 02:34:19;;;;;;;;;;;21.50;62.70;;;;;;5082355;28;19977;-61
2021/09/09 02:36:44;;;;;;;;;;;21.50;63.40;;;;;;5081163;28;19943;-58
2021/09/09 02:39:09;;;;;;;;;;;21.50;62.90;;;;;;5090815;27;19938;-55
2021/09/09 02:41:35;;;;;;;;;;;21.50;63.00;;;;;;5094335;28;19924;-61
2021/09/09 02:44:00;;;;;;;;;;;21.50;63.00;;;;;;5082172;28;20038;-56
2021/09/09 02:46:26;;;;;;;;;;;21.50;62.80;;;;;;5088324;28;20342;-56
2021/09/09 02:48:52;;;;;;;;;;;21.50;62.90;;;;;;5088395;28;19919;-60
2021/09/09 02:51:17;;;;;;;;;;;21.50;62.90;;;;;;5089102;28;19952;-58
2021/09/09 02:53:42;;;;;;;;;;;21.50;62.90;;;;;;5081527;28;19916;-55
2021/09/09 02:56:08;;;;;;;;;;;21.50;62.80;;;;;;5085858;28;20482;-58
2021/09/09 02:58:33;;;;;;;;;;;21.50;62.80;;;;;;5079558;28;19931;-61
2021/09/09 03:00:59;;;;;;;;;;;21.50;62.80;;;;;;5091950;28;20132;-59
2021/09/09 03:03:24;;;;;;;;;;;21.50;63.00;;;;;;5090927;28;19912;-59
2021/09/09 03:05:50;;;;;;;;;;;21.50;62.90;;;;;;5083655;28;20394;-60
2021/09/09 03:08:15;;;;;;;;;;;21.40;62.80;;;;;;5087688;28;19916;-55
2021/09/09 03:10:40;;;;;;;;;;;21.40;62.80;;;;;;5090345;28;20138;-58
2021/09/09 03:13:06;;;;;;;;;;;21.50;62.80;;;;;;5089845;28;19916;-59
2021/09/09 03:15:31;;;;;;;;;;;21.50;62.70;;;;;;5097714;28;20428;-61
2021/09/09 03:17:57;;;;;;;;;;;21.40;62.70;;;;;;5089805;28;19920;-62
2021/09/09 03:20:22;;;;;;;;;;;21.40;62.40;;;;;;5089661;28;19961;-61
2021/09/09 03:22:48;;;;;;;;;;;21.50;62.50;;;;;;5077754;28;19916;-61
2021/09/09 03:25:13;;;;;;;;;;;21.50;62.80;;;;;;5079981;28;20536;-60
2021/09/09 03:27:39;;;;;;;;;;;21.40;62.70;;;;;;5080922;28;19956;-60
2021/09/09 03:30:04;;;;;;;;;;;21.50;62.80;;;;;;5087230;28;19920;-56
2021/09/09 03:32:30;;;;;;;;;;;21.50;62.90;;;;;;5100537;28;19912;-59
2021/09/09 03:34:55;;;;;;;;;;;21.50;62.90;;;;;;5095240;28;19915;-60
2021/09/09 03:37:20;;;;;;;;;;;21.40;62.80;;;;;;5090325;28;20425;-59
2021/09/09 03:39:46;;;;;;;;;;;21.40;62.80;;;;;;5079022;28;19970;-56
2021/09/09 03:42:11;;;;;;;;;;;21.50;62.90;;;;;;5092042;27;20292;-59
2021/09/09 03:44:37;;;;;;;;;;;21.50;62.90;;;;;;5083084;28;20118;-59
2021/09/09 03:47:02;;;;;;;;;;;21.40;62.30;;;;;;5091696;28;20144;-57
2021/09/09 03:49:28;;;;;;;;;;;21.50;62.70;;;;;;5092517;27;19911;-59
2021/09/09 03:51:53;;;;;;;;;;;21.40;62.80;;;;;;5083345;28;19922;-60
2021/09/09 03:54:19;;;;;;;;;;;21.40;62.90;;;;;;5088750;28;19916;-62
2021/09/09 03:56:44;;;;;;;;;;;21.40;62.80;;;;;;5095034;27;19912;-59
2021/09/09 03:59:10;;;;;;;;;;;21.40;63.00;;;;;;5090223;28;19939;-64
2021/09/09 04:01:35;;;;;;;;;;;21.40;62.80;;;;;;5095426;28;19916;-56
2021/09/09 04:04:01;;;;;;;;;;;21.40;62.70;;;;;;5088593;28;19916;-60
2021/09/09 04:06:26;;;;;;;;;;;21.40;62.70;;;;;;5099178;27;20288;-59
2021/09/09 04:08:52;;;;;;;;;;;21.40;62.90;;;;;;5091158;27;19931;-58
2021/09/09 04:11:17;;;;;;;;;;;21.40;63.00;;;;;;5088806;28;19913;-59
2021/09/09 04:13:42;;;;;;;;;;;21.40;62.90;;;;;;5088138;28;19912;-59
2021/09/09 04:16:08;;;;;;;;;;;21.40;62.90;;;;;;5093282;28;19924;-55
2021/09/09 04:18:33;;;;;;;;;;;21.40;62.80;;;;;;5087423;28;19912;-58
2021/09/09 04:20:59;;;;;;;;;;;21.40;63.00;;;;;;5100161;27;20513;-55
2021/09/09 04:23:24;;;;;;;;;;;21.40;62.70;;;;;;5085999;28;19935;-60
2021/09/09 04:25:50;;;;;;;;;;;21.40;62.50;;;;;;5097297;27;19912;-61
2021/09/09 04:28:15;;;;;;;;;;;21.40;62.30;;;;;;5096075;28;19916;-56
2021/09/09 04:30:40;;;;;;;;;;;21.40;62.40;;;;;;5097517;28;20392;-55
2021/09/09 04:33:06;;;;;;;;;;;21.40;62.80;;;;;;5089768;28;19938;-59
2021/09/09 04:35:31;;;;;;;;;;;21.30;62.80;;;;;;5092197;28;19912;-58
2021/09/09 04:37:57;;;;;;;;;;;21.40;62.90;;;;;;5087073;28;19920;-59
2021/09/09 04:40:22;;;;;;;;;;;21.40;63.10;;;;;;5096754;27;19923;-58
2021/09/09 04:42:48;;;;;;;;;;;21.40;63.10;;;;;;5089013;27;19918;-60
2021/09/09 04:45:13;;;;;;;;;;;21.40;63.20;;;;;;5083920;28;19912;-58
2021/09/09 04:47:39;;;;;;;;;;;21.30;63.20;;;;;;5089851;28;20665;-61
2021/09/09 04:50:04;;;;;;;;;;;21.30;63.20;;;;;;5098674;28;19919;-56
2021/09/09 04:52:30;;;;;;;;;;;21.30;63.30;;;;;;5101722;27;19943;-57
2021/09/09 04:54:55;;;;;;;;;;;21.30;63.50;;;;;;5093149;28;20396;-56
2021/09/09 04:57:21;;;;;;;;;;;21.30;63.30;;;;;;5103805;27;19915;-60
2021/09/09 04:59:46;;;;;;;;;;;21.30;63.60;;;;;;5105671;27;19923;-57
2021/09/09 05:02:12;;;;;;;;;;;21.30;63.90;;;;;;5097828;27;19922;-57
2021/09/09 05:04:38;;;;;;;;;;;21.30;63.70;;;;;;5090602;27;20326;-60
2021/09/09 05:07:04;;;;;;;;;;;21.30;63.80;;;;;;5096000;28;20627;-54
2021/09/09 05:09:30;;;;;;;;;;;21.40;62.60;;;;;;5093427;28;19915;-59
2021/09/09 05:11:55;;;;;;;;;;;21.30;63.00;;;;;;5099770;27;19911;-60
2021/09/09 05:14:20;;;;;;;;;;;21.30;62.80;;;;;;5094637;27;20401;-59
2021/09/09 05:16:46;;;;;;;;;;;21.30;63.50;;;;;;5112892;22;19977;-58
2021/09/09 05:19:11;;;;;;;;;;;21.30;63.20;;;;;;5101263;27;20395;-56
2021/09/09 05:21:37;;;;;;;;;;;21.30;62.20;;;;;;5097575;27;19912;-54
2021/09/09 05:24:02;;;;;;;;;;;21.30;62.30;;;;;;5101733;27;19916;-58
2021/09/09 05:26:28;;;;;;;;;;;21.30;62.90;;;;;;5096457;28;20443;-56
2021/09/09 05:28:53;;;;;;;;;;;21.30;63.30;;;;;;5100505;28;20466;-59
2021/09/09 05:31:19;;;;;;;;;;;21.30;63.80;;;;;;5090977;28;20004;-57
2021/09/09 05:33:44;;;;;;;;;;;21.30;64.40;;;;;;5099844;28;19915;-56
2021/09/09 05:36:10;;;;;;;;;;;21.20;64.40;;;;;;5094713;28;20358;-55
2021/09/09 05:38:35;;;;;;;;;;;21.30;64.40;;;;;;5082760;28;19916;-57
2021/09/09 05:41:01;;;;;;;;;;;21.20;64.40;;;;;;5101705;28;19916;-58
2021/09/09 05:43:26;;;;;;;;;;;21.20;64.30;;;;;;5084020;28;19916;-58
2021/09/09 05:45:51;;;;;;;;;;;21.30;64.10;;;;;;5101389;28;20376;-55
2021/09/09 05:48:17;;;;;;;;;;;21.30;64.10;;;;;;5102414;28;20146;-56
2021/09/09 05:50:42;;;;;;;;;;;21.30;63.80;;;;;;5102046;28;19918;-57
2021/09/09 05:53:08;;;;;;;;;;;21.30;64.00;;;;;;5102562;28;20412;-55
2021/09/09 05:55:33;;;;;;;;;;;21.30;64.00;;;;;;5101983;28;20093;-57
2021/09/09 05:57:59;;;;;;;;;;;21.30;64.00;;;;;;5101673;28;19915;-58
2021/09/09 06:00:24;;;;;;;;;;;21.30;64.00;;;;;;5101213;27;19915;-56
2021/09/09 06:02:50;;;;;;;;;;;21.30;63.80;;;;;;5102239;28;20430;-57
2021/09/09 06:05:16;;;;;;;;;;;21.30;63.90;;;;;;5100621;28;19922;-59
2021/09/09 06:07:41;;;;;;;;;;;21.30;63.80;;;;;;5100697;28;19924;-56
2021/09/09 06:10:10;;;;;;;;;;;21.30;63.90;;;;;;5082524;28;19928;-58
2021/09/09 06:12:35;;;;;;;;;;;21.30;63.90;;;;;;5101437;28;19912;-58
2021/09/09 06:15:02;;;;;;;;;;;21.30;64.00;;;;;;5081821;28;19942;-59
2021/09/09 06:17:28;;;;;;;;;;;21.30;64.00;;;;;;5102335;28;20485;-57
2021/09/09 06:19:53;;;;;;;;;;;21.30;64.00;;;;;;5101515;28;19919;-55
2021/09/09 06:22:19;;;;;;;;;;;21.30;63.80;;;;;;5102212;28;20568;-55
2021/09/09 06:24:44;;;;;;;;;;;21.30;63.90;;;;;;5102493;28;19912;-56
2021/09/09 06:27:10;;;;;;;;;;;21.30;63.90;;;;;;5082965;28;20520;-54
2021/09/09 06:29:35;;;;;;;;;;;21.30;63.90;;;;;;5100490;28;19957;-54
2021/09/09 06:32:01;;;;;;;;;;;21.30;62.50;;;;;;5101240;28;19919;-55
2021/09/09 06:34:26;;;;;;;;;;;21.30;63.70;;;;;;5100551;28;19916;-58
2021/09/09 06:36:51;;;;;;;;;;;21.30;63.50;;;;;;5102242;28;20334;-59
2021/09/09 06:39:19;;;;;;;;;;;21.30;64.10;;;;;;5102095;28;19922;-56
2021/09/09 06:41:45;;;;;;;;;;;21.30;64.00;;;;;;5102595;28;20387;-58
2021/09/09 06:44:11;;;;;;;;;;;21.30;64.40;;;;;;5101376;28;19911;-54
2021/09/09 06:46:36;;;;;;;;;;;21.30;64.20;;;;;;5083984;28;19950;-57
2021/09/09 06:49:03;;;;;;;;;;;21.20;64.20;;;;;;5083107;28;19912;-53
2021/09/09 06:51:29;;;;;;;;;;;21.30;64.50;;;;;;5102352;28;19912;-56
2021/09/09 06:53:54;;;;;;;;;;;21.20;64.50;;;;;;5082992;28;19934;-55
2021/09/09 06:56:19;;;;;;;;;;;21.20;64.40;;;;;;5101588;28;19922;-58
2021/09/09 06:58:45;;;;;;;;;;;21.20;64.10;;;;;;5101162;28;20533;-57
2021/09/09 07:01:10;;;;;;;;;;;21.20;64.00;;;;;;5100840;28;19939;-58
2021/09/09 07:03:36;;;;;;;;;;;21.20;63.60;;;;;;5102006;28;19923;-57
2021/09/09 07:06:01;;;;;;;;;;;21.20;63.60;;;;;;5101213;28;19912;-58
2021/09/09 07:08:27;;;;;;;;;;;21.20;62.90;;;;;;5101208;28;19919;-58
2021/09/09 07:10:52;;;;;;;;;;;21.20;62.50;;;;;;5100700;28;19912;-59
2021/09/09 07:13:18;;;;;;;;;;;21.20;62.50;;;;;;5084464;28;19916;-58
2021/09/09 07:15:43;;;;;;;;;;;21.20;62.60;;;;;;5071578;28;19919;-59
2021/09/09 07:18:09;;;;;;;;;;;21.20;62.70;;;;;;5101654;28;19973;-57
2021/09/09 07:20:34;;;;;;;;;;;21.20;62.30;;;;;;5100268;28;19926;-58
2021/09/09 07:23:00;;;;;;;;;;;21.20;60.80;;;;;;5100416;28;19912;-57
2021/09/09 07:25:25;;;;;;;;;;;21.20;61.50;;;;;;5101075;28;19912;-59
2021/09/09 07:27:50;;;;;;;;;;;21.20;61.70;;;;;;5102210;28;19912;-57
2021/09/09 07:30:16;;;;;;;;;;;21.20;61.60;;;;;;5100674;28;19918;-58
2021/09/09 07:32:41;;;;;;;;;;;21.20;61.20;;;;;;5100834;28;19972;-58
2021/09/09 07:35:07;;;;;;;;;;;21.20;61.60;;;;;;5065669;28;19920;-56
2021/09/09 07:37:32;;;;;;;;;;;21.20;61.50;;;;;;5083033;28;20023;-57
2021/09/09 07:39:58;;;;;;;;;;;21.20;61.50;;;;;;5082206;28;19915;-57
2021/09/09 07:42:23;;;;;;;;;;;21.20;61.60;;;;;;5099455;28;19923;-57
2021/09/09 07:44:49;;;;;;;;;;;21.20;61.50;;;;;;5099425;28;19918;-58
2021/09/09 07:47:15;;;;;;;;;;;21.20;61.70;;;;;;5086799;28;19912;-58
2021/09/09 07:49:40;;;;;;;;;;;21.10;61.00;;;;;;5098535;28;19916;-58
2021/09/09 07:52:06;;;;;;;;;;;21.20;61.60;;;;;;5099755;28;19912;-57
2021/09/09 07:54:31;;;;;;;;;;;21.10;61.60;;;;;;5099645;28;19924;-59
2021/09/09 07:56:56;;;;;;;;;;;21.20;61.50;;;;;;5081915;28;20284;-58
2021/09/09 07:59:24;;;;;;;;;;;21.20;61.20;;;;;;5099553;28;19920;-54
2021/09/09 08:01:49;;;;;;;;;;;21.10;61.10;;;;;;5099628;28;20020;-58
2021/09/09 08:04:17;;;;;;;;;;;21.20;61.30;;;;;;5100207;28;20399;-56
2021/09/09 08:06:43;;;;;;;;;;;21.20;59.50;;;;;;5082236;28;19923;-56
2021/09/09 08:09:09;;;;;;;;;;;21.20;60.70;;;;;;5081674;28;20495;-56
2021/09/09 08:11:34;;;;;;;;;;;21.20;61.20;;;;;;5100687;28;19911;-59
2021/09/09 08:14:00;;;;;;;;;;;21.20;60.70;;;;;;5098995;28;19918;-58
2021/09/09 08:16:25;;;;;;;;;;;21.20;59.60;;;;;;5100083;28;19919;-57
2021/09/09 08:18:51;;;;;;;;;;;21.20;60.40;;;;;;5100103;28;19912;-57
2021/09/09 08:21:16;;;;;;;;;;;21.10;60.80;;;;;;5099976;28;20389;-57
2021/09/09 08:23:42;;;;;;;;;;;21.10;61.00;;;;;;5100137;28;19995;-58
2021/09/09 08:26:07;;;;;;;;;;;21.10;61.30;;;;;;5099966;28;19912;-56
2021/09/09 08:28:33;;;;;;;;;;;21.10;60.10;;;;;;5104047;28;19912;-58
2021/09/09 08:30:58;;;;;;;;;;;21.10;59.10;;;;;;5103812;28;19916;-56
2021/09/09 08:33:24;;;;;;;;;;;21.10;59.70;;;;;;5104143;28;19911;-57
2021/09/09 08:35:49;;;;;;;;;;;21.10;59.40;;;;;;5103826;28;20384;-56
2021/09/09 08:38:15;;;;;;;;;;;21.10;60.30;;;;;;5084550;28;19918;-56
2021/09/09 08:40:41;;;;;;;;;;;21.10;58.10;;;;;;5103600;28;19919;-57
2021/09/09 08:43:07;;;;;;;;;;;21.10;59.40;;;;;;5086180;28;20497;-57
2021/09/09 08:45:32;;;;;;;;;;;21.10;59.60;;;;;;5104088;28;19927;-60
2021/09/09 08:47:59;;;;;;;;;;;21.10;60.10;;;;;;5085005;28;19923;-59
2021/09/09 08:50:25;;;;;;;;;;;21.10;59.80;;;;;;5102896;28;19928;-57
2021/09/09 08:52:50;;;;;;;;;;;21.10;59.80;;;;;;5101750;28;19923;-57
2021/09/09 08:55:16;;;;;;;;;;;21.10;60.20;;;;;;5103488;28;19991;-56
2021/09/09 08:57:41;;;;;;;;;;;21.00;59.60;;;;;;5103639;28;19912;-55
2021/09/09 09:00:07;;;;;;;;;;;21.00;59.80;;;;;;5101640;28;20388;-54
2021/09/09 09:02:45;;;;;;;;;;;21.00;58.80;;;;;;5103647;28;19911;-59
2021/09/09 09:05:11;;;;;;;;;;;21.00;58.40;;;;;;5102865;28;19920;-58
2021/09/09 09:07:36;;;;;;;;;;;21.00;58.80;;;;;;5103447;28;19969;-59
2021/09/09 09:10:03;;;;;;;;;;;21.00;59.60;;;;;;5103661;28;19912;-57
2021/09/09 09:12:39;;;;;;;;;;;21.00;60.10;;;;;;5103474;28;19918;-58
2021/09/09 09:15:13;;;;;;;;;;;21.00;60.20;;;;;;5103076;27;19939;-56
2021/09/09 09:17:54;;;;;;;;;;;21.00;59.60;;;;;;5103587;28;19920;-56
2021/09/09 09:20:21;;;;;;;;;;;21.00;59.70;;;;;;5083571;28;25598;-57
2021/09/09 09:22:47;;;;;;;;;;;21.00;59.50;;;;;;5102757;28;20277;-56
2021/09/09 09:25:13;;;;;;;;;;;21.00;59.20;;;;;;5102739;28;19934;-59
2021/09/09 09:27:46;;;;;;;;;;;21.00;59.20;;;;;;5102761;28;19976;-56
2021/09/09 09:30:12;;;;;;;;;;;21.00;59.40;;;;;;5102090;28;20571;-56
2021/09/09 09:32:48;;;;;;;;;;;21.00;60.00;;;;;;5102740;28;19912;-59
2021/09/09 09:35:17;;;;;;;;;;;21.00;59.60;;;;;;5101960;28;19958;-56
2021/09/09 09:38:05;;;;;;;;;;;21.00;59.90;;;;;;5084035;28;20019;-58
2021/09/09 09:40:40;;;;;;;;;;;20.90;60.10;;;;;;5100164;28;19915;-56
2021/09/09 09:43:07;;;;;;;;;;;21.00;60.10;;;;;;5103019;28;19923;-57
2021/09/09 09:45:32;;;;;;;;;;;21.00;60.20;;;;;;5083150;28;19915;-57
2021/09/09 09:47:57;;;;;;;;;;;20.90;60.00;;;;;;5102291;28;19985;-57
2021/09/09 09:50:23;;;;;;;;;;;20.90;60.40;;;;;;5102532;28;19916;-57
2021/09/09 09:52:49;;;;;;;;;;;20.90;60.80;;;;;;5102468;28;19912;-58
2021/09/09 09:55:14;;;;;;;;;;;20.90;60.00;;;;;;5102348;28;20350;-56
2021/09/09 09:57:49;;;;;;;;;;;20.90;59.80;;;;;;5084259;28;20553;-59
2021/09/09 10:00:15;;;;;;;;;;;20.90;60.20;;;;;;5102201;28;19958;-58
2021/09/09 10:02:40;;;;;;;;;;;20.90;60.60;;;;;;5102310;28;19935;-56
2021/09/09 10:05:06;;;;;;;;;;;20.90;60.80;;;;;;5083118;28;19935;-57
2021/09/09 10:07:31;;;;;;;;;;;20.90;60.80;;;;;;5083401;28;19912;-59
2021/09/09 10:09:57;;;;;;;;;;;20.90;61.20;;;;;;5084111;28;20632;-56
2021/09/09 10:12:25;;;;;;;;;;;20.90;61.60;;;;;;5084547;28;20025;-59
2021/09/09 10:14:51;;;;;;;;;;;20.90;61.70;;;;;;5101207;28;19971;-57
2021/09/09 10:17:17;;;;;;;;;;;20.90;61.70;;;;;;5083381;28;19919;-58
2021/09/09 10:19:43;;;;;;;;;;;20.90;61.70;;;;;;5100091;28;19923;-58
2021/09/09 10:22:11;;;;;;;;;;;20.90;62.10;;;;;;5101510;28;20162;-58
2021/09/09 10:24:36;;;;;;;;;;;20.90;61.50;;;;;;5099938;28;20003;-58
2021/09/09 10:27:18;;;;;;;;;;;20.90;61.00;;;;;;5100751;28;20432;-58
2021/09/09 10:29:44;;;;;;;;;;;20.90;61.30;;;;;;5098002;28;19919;-55
2021/09/09 10:32:28;;;;;;;;;;;20.90;62.00;;;;;;5083437;28;19922;-56
2021/09/09 10:35:13;;;;;;;;;;;20.90;61.90;;;;;;5101094;28;19993;-59
2021/09/09 10:37:38;;;;;;;;;;;20.90;61.70;;;;;;5101219;28;19919;-56
2021/09/09 10:40:04;;;;;;;;;;;20.90;61.40;;;;;;5101279;28;20308;-58
2021/09/09 10:42:39;;;;;;;;;;;20.90;61.70;;;;;;5102234;28;19968;-58
2021/09/09 10:45:05;;;;;;;;;;;20.90;62.00;;;;;;5102346;28;19981;-56
2021/09/09 10:47:30;;;;;;;;;;;20.90;62.30;;;;;;5102239;28;20372;-55
2021/09/09 10:50:02;;;;;;;;;;;20.90;62.60;;;;;;5101559;28;19965;-57
2021/09/09 10:52:28;;;;;;;;;;;20.90;61.60;;;;;;5084639;28;19911;-57
2021/09/09 10:55:04;;;;;;;;;;;20.90;61.10;;;;;;5093584;28;19915;-57
2021/09/09 10:57:29;;;;;;;;;;;20.90;61.60;;;;;;5099161;28;19951;-58
2021/09/09 10:59:54;;;;;;;;;;;20.90;61.50;;;;;;5096423;28;20241;-58
2021/09/09 11:02:20;;;;;;;;;;;20.90;62.30;;;;;;5099927;28;20371;-58
2021/09/09 11:04:48;;;;;;;;;;;21.00;61.80;;;;;;5087638;28;19998;-57
2021/09/09 11:07:27;;;;;;;;;;;20.90;61.00;;;;;;5101194;28;19949;-56
2021/09/09 11:10:06;;;;;;;;;;;21.00;61.20;;;;;;5100181;27;19959;-58
2021/09/09 11:12:35;;;;;;;;;;;21.00;60.70;;;;;;5101095;28;20406;-56
2021/09/09 11:15:01;;;;;;;;;;;21.00;60.30;;;;;;5088092;28;19920;-57
2021/09/09 11:17:26;;;;;;;;;;;21.00;60.50;;;;;;5102632;28;19927;-57
2021/09/09 11:19:58;;;;;;;;;;;20.90;60.70;;;;;;5086967;22;19960;-60
2021/09/09 11:22:24;;;;;;;;;;;21.00;60.50;;;;;;5068660;28;19939;-62
2021/09/09 11:24:51;;;;;;;;;;;21.00;60.20;;;;;;5045609;28;20389;-60
2021/09/09 11:27:16;;;;;;;;;;;21.00;59.80;;;;;;5048228;28;19965;-60
2021/09/09 11:29:42;;;;;;;;;;;21.00;59.90;;;;;;5062054;28;19928;-59
2021/09/09 11:32:07;;;;;;;;;;;21.00;60.70;;;;;;5054264;28;20429;-57
2021/09/09 11:34:33;;;;;;;;;;;21.00;60.30;;;;;;5053009;28;19961;-57
2021/09/09 11:36:58;;;;;;;;;;;21.00;60.30;;;;;;5071080;28;19962;-58
2021/09/09 11:39:24;;;;;;;;;;;21.00;61.10;;;;;;5053620;28;19964;-60
2021/09/09 11:41:52;;;;;;;;;;;21.00;61.10;;;;;;5078267;28;20183;-57
2021/09/09 11:44:30;;;;;;;;;;;21.00;61.10;;;;;;5067620;28;19948;-60
2021/09/09 11:46:59;;;;;;;;;;;21.00;61.30;;;;;;5027743;28;19919;-60
2021/09/09 11:49:28;;;;;;;;;;;21.10;60.80;;;;;;5058473;28;19917;-61
2021/09/09 11:51:54;;;;;;;;;;;21.10;60.20;;;;;;5071998;28;20496;-57
2021/09/09 11:54:20;;;;;;;;;;;21.10;60.30;;;;;;5064466;28;19937;-59
2021/09/09 11:56:46;;;;;;;;;;;21.10;60.00;;;;;;5079047;28;19916;-58
2021/09/09 11:59:17;;;;;;;;;;;21.10;59.60;;;;;;5054102;28;20035;-59
2021/09/09 12:01:42;;;;;;;;;;;21.10;59.50;;;;;;5042063;28;20207;-60
2021/09/09 12:04:08;;;;;;;;;;;21.10;60.30;;;;;;5058035;28;19919;-56
2021/09/09 12:06:33;;;;;;;;;;;21.10;61.20;;;;;;5061161;28;19916;-55
2021/09/09 12:08:59;;;;;;;;;;;21.10;61.70;;;;;;5057385;28;19919;-59
2021/09/09 12:11:24;;;;;;;;;;;21.10;62.10;;;;;;5083947;28;19948;-59
2021/09/09 12:13:50;;;;;;;;;;;21.10;61.90;;;;;;5057881;28;19912;-58
2021/09/09 12:16:22;;;;;;;;;;;21.20;60.90;;;;;;5064234;28;19919;-58
2021/09/09 12:19:00;;;;;;;;;;;21.20;59.90;;;;;;5052762;28;19919;-59
2021/09/09 12:21:25;;;;;;;;;;;21.10;59.90;;;;;;5084040;28;19916;-60
2021/09/09 12:24:04;;;;;;;;;;;21.20;60.20;;;;;;5067486;28;19923;-54
2021/09/09 12:26:30;;;;;;;;;;;21.20;60.10;;;;;;5073582;28;19917;-58
2021/09/09 12:28:56;;;;;;;;;;;21.20;59.90;;;;;;5047130;28;19970;-59
2021/09/09 12:31:34;;;;;;;;;;;21.20;59.90;;;;;;5059415;28;20123;-59
2021/09/09 12:34:01;;;;;;;;;;;21.20;60.30;;;;;;5059910;28;19916;-59
2021/09/09 12:36:37;;;;;;;;;;;21.20;59.60;;;;;;5053948;28;20373;-61
2021/09/09 12:39:02;;;;;;;;;;;21.20;59.90;;;;;;5071746;28;19965;-59
2021/09/09 12:41:29;;;;;;;;;;;21.20;60.40;;;;;;5057399;28;20327;-59
2021/09/09 12:43:57;;;;;;;;;;;21.20;60.00;;;;;;5066080;28;19954;-61
2021/09/09 12:46:25;;;;;;;;;;;21.20;60.00;;;;;;5073471;28;20375;-60
2021/09/09 12:48:57;;;;;;;;;;;21.20;59.40;;;;;;5044176;28;20329;-57
2021/09/09 12:51:23;;;;;;;;;;;21.20;59.70;;;;;;5043521;28;20489;-60
2021/09/09 12:53:48;;;;;;;;;;;21.20;59.30;;;;;;5069727;28;19935;-57
2021/09/09 12:56:14;;;;;;;;;;;21.20;59.50;;;;;;5052614;28;20470;-55
2021/09/09 12:58:39;;;;;;;;;;;21.30;59.70;;;;;;5058841;28;19916;-60
2021/09/09 13:01:05;;;;;;;;;;;21.30;60.40;;;;;;5031979;28;20028;-57
2021/09/09 13:03:31;;;;;;;;;;;21.30;60.30;;;;;;5071448;28;19913;-56
2021/09/09 13:05:57;;;;;;;;;;;21.20;59.70;;;;;;5060654;28;19962;-58
2021/09/09 13:08:22;;;;;;;;;;;21.30;59.90;;;;;;5065788;28;19916;-58
2021/09/09 13:10:48;;;;;;;;;;;21.30;60.10;;;;;;5056082;28;19912;-61
2021/09/09 13:13:13;;;;;;;;;;;21.30;60.40;;;;;;5059874;28;19921;-61
2021/09/09 13:15:38;;;;;;;;;;;21.30;60.90;;;;;;5043254;28;19917;-58
2021/09/09 13:18:04;;;;;;;;;;;21.30;60.20;;;;;;5043754;28;19944;-60
2021/09/09 13:20:31;;;;;;;;;;;21.40;60.60;;;;;;5072674;28;19926;-56
2021/09/09 13:22:56;;;;;;;;;;;21.30;61.30;;;;;;5056808;28;19916;-59
2021/09/09 13:25:22;;;;;;;;;;;21.30;61.30;;;;;;5075036;28;19920;-58
2021/09/09 13:27:47;;;;;;;;;;;21.40;61.20;;;;;;5055536;28;19967;-60
2021/09/09 13:30:13;;;;;;;;;;;21.40;60.90;;;;;;5060276;28;20401;-61
2021/09/09 13:32:38;;;;;;;;;;;21.40;61.60;;;;;;5060974;28;20176;-59
2021/09/09 13:35:04;;;;;;;;;;;21.40;61.50;;;;;;5052595;28;20464;-60
2021/09/09 13:37:29;;;;;;;;;;;21.40;61.10;;;;;;5060413;28;19916;-56
2021/09/09 13:39:55;;;;;;;;;;;21.40;60.70;;;;;;5060854;28;20391;-58
2021/09/09 13:42:20;;;;;;;;;;;21.40;60.50;;;;;;5056878;28;19919;-59
2021/09/09 13:44:46;;;;;;;;;;;21.40;60.40;;;;;;5082827;28;19926;-58
2021/09/09 13:47:12;;;;;;;;;;;21.50;60.30;;;;;;5075097;28;19912;-60
2021/09/09 13:49:37;;;;;;;;;;;21.50;60.30;;;;;;5074645;28;19920;-57
2021/09/09 13:52:03;;;;;;;;;;;21.50;59.70;;;;;;5055517;28;19912;-57
2021/09/09 13:54:28;;;;;;;;;;;21.50;59.70;;;;;;5083028;28;19991;-60
2021/09/09 13:56:53;;;;;;;;;;;21.50;60.20;;;;;;5061396;28;19919;-59
2021/09/09 13:59:19;;;;;;;;;;;21.50;60.50;;;;;;5068810;28;19955;-57
2021/09/09 14:01:44;;;;;;;;;;;21.50;60.90;;;;;;5063147;28;19913;-60
2021/09/09 14:04:10;;;;;;;;;;;21.50;60.70;;;;;;5056305;28;20317;-56
2021/09/09 14:06:36;;;;;;;;;;;21.50;60.80;;;;;;5056292;28;19936;-58
2021/09/09 14:09:02;;;;;;;;;;;21.50;60.20;;;;;;5072502;28;19938;-59
2021/09/09 14:11:28;;;;;;;;;;;21.50;60.20;;;;;;5057001;28;20542;-55